Hlavní strana
METAR-TAF:

METAR-TAF

Letiště :

Tunis, Tunisko

zeměpisná šířka: 36-50N, zeměpisná délka: 010-14E, výška: 3 m

Aktuální stav počasí

Zpráva byla vytvořena před 24 minutami, v 21:30 UTC
Západní vítr 7 kt s nárazy do 17 kt, proměnlivý mezi západojihozápadním a severoseverozápadním
Teplota 15°C
Vlhkost vzduchu 77%
Tlak 1021 hPa
Viditelnost 10 km a více
Skoro jasno ve výšce 2600 ft

METAR: DTTA 222130Z 27007G17KT 240V330 9999 FEW026 15/11 Q1021 NOSIG

Čas: 22:54 (21:54 UTC)

Předpověď počasí

Zpráva byla vytvořena před 4 hodinami a 54 minutami, v 17:00 UTC
Předpověď platná od 22 v 18 UTC do 23 v 18 UTC
Západoseverozápadní vítr 20 kt s nárazy do 37 kt
Viditelnost 10 km a více
Skoro jasno ve výšce 2600 ft

TAF: DTTA 221700Z 2218/2318 30020G37KT 9999 FEW026

Stav a předpovědi počasí z více než 4 000 letišť (zprávy METAR a TAF).

Červené a žluté tečky na mapě představují dostupné meteorologické stanice.

Když kurzor umístíte na tečku, zobrazí se název stanice.

Pak kliknutím zobrazíte stav a předpověď počasí.

Chcete-li změnit mapu, kliknutím na zelené tlačítko se znaménkem +mapu přiblížíte, kliknutím na zelené tlačítko se znaménkem – mapu oddálíte a kliknutím na zelené šipky přejdete na sousední mapy.


METAR-TAF: